Time;durP1;ratioP1;P1;durP2;ratioP2;P2;SDS_P1;SDS_P2;PMS_P1;PMS_P2;Temp;Humidity;BMP_temperature;BMP_pressure;BME280_temperature;BME280_humidity;BME280_pressure;Samples;Min_cycle;Max_cycle;Signal;HPM_P1;HPM_P2
2021/09/23 00:01:57;;;;;;;17.23;11.95;;;;;;;13.00;76.55;100859.94;4897237;28;96731;-83
2021/09/23 00:04:44;;;;;;;21.67;13.18;;;;;;;12.99;76.55;100849.44;4881327;28;96917;-84
2021/09/23 00:07:09;;;;;;;20.80;12.95;;;;;;;13.00;76.54;100852.03;4880868;28;101602;-86
2021/09/23 00:09:35;;;;;;;20.45;13.70;;;;;;;12.98;76.50;100840.66;4879784;28;100320;-86
2021/09/23 00:12:00;;;;;;;20.35;12.75;;;;;;;13.01;76.42;100844.97;4862509;28;96750;-85
2021/09/23 00:14:26;;;;;;;22.50;13.52;;;;;;;12.94;76.73;100843.47;4880397;28;97049;-85
2021/09/23 00:16:52;;;;;;;18.98;13.45;;;;;;;12.90;76.47;100825.13;4861461;28;101774;-85
2021/09/23 00:19:18;;;;;;;21.20;13.48;;;;;;;12.90;76.10;100825.13;4880248;28;98069;-86
2021/09/23 00:21:44;;;;;;;21.75;13.70;;;;;;;12.90;75.95;100824.28;4864868;28;96732;-85
2021/09/23 00:24:10;;;;;;;23.33;13.63;;;;;;;12.90;76.16;100819.84;4865238;28;96724;-85
2021/09/23 00:26:35;;;;;;;21.23;12.95;;;;;;;12.86;76.22;100813.00;4864492;28;100880;-85
2021/09/23 00:29:03;;;;;;;18.90;12.77;;;;;;;12.83;76.11;100804.34;4864509;28;98924;-86
2021/09/23 00:31:30;;;;;;;19.38;11.40;;;;;;;12.80;76.18;100810.56;4881785;28;96732;-86
2021/09/23 00:33:56;;;;;;;19.70;13.43;;;;;;;12.74;76.48;100804.63;4881709;28;96971;-85
2021/09/23 00:36:21;;;;;;;21.02;12.05;;;;;;;12.69;76.31;100802.19;4900312;28;98268;-83
2021/09/23 00:38:47;;;;;;;15.82;13.18;;;;;;;12.66;76.30;100800.50;4899449;28;100533;-84
2021/09/23 00:41:12;;;;;;;18.02;11.82;;;;;;;12.61;76.51;100799.81;4902247;28;96648;-85
2021/09/23 00:43:38;;;;;;;26.58;11.75;;;;;;;12.64;76.83;100801.47;4878872;28;96820;-85
2021/09/23 00:46:04;;;;;;;20.60;12.55;;;;;;;12.64;76.29;100790.94;4887764;28;101791;-86
2021/09/23 00:48:29;;;;;;;21.00;12.85;;;;;;;12.64;76.34;100796.22;4895590;28;100776;-85
2021/09/23 00:50:58;;;;;;;20.60;12.32;;;;;;;12.62;76.36;100787.50;4894290;28;97122;-85
2021/09/23 00:53:24;;;;;;;16.75;12.07;;;;;;;12.78;76.08;100790.47;4877166;28;96781;-84
2021/09/23 00:55:49;;;;;;;20.17;12.40;;;;;;;12.64;76.46;100785.69;4871857;28;101589;-85
2021/09/23 00:58:17;;;;;;;21.17;12.23;;;;;;;12.65;76.16;100785.63;4882937;28;98468;-85
2021/09/23 01:00:46;;;;;;;22.50;12.73;;;;;;;12.62;76.01;100779.59;4866564;28;96880;-84
2021/09/23 01:03:16;;;;;;;19.73;11.30;;;;;;;12.75;75.71;100778.25;4871444;28;96991;-86
2021/09/23 01:05:44;;;;;;;17.33;11.43;;;;;;;12.64;76.06;100776.00;4869568;28;101378;-85
2021/09/23 01:08:09;;;;;;;16.20;12.30;;;;;;;12.63;76.18;100771.66;4883723;28;100682;-85
2021/09/23 01:10:35;;;;;;;17.05;11.27;;;;;;;12.62;76.06;100763.78;4884501;28;97147;-84
2021/09/23 01:13:01;;;;;;;19.00;11.32;;;;;;;12.82;75.27;100757.81;4885041;28;97747;-85
2021/09/23 01:15:42;;;;;;;21.67;11.40;;;;;;;12.66;75.89;100768.06;4878473;28;100603;-87
2021/09/23 01:18:08;;;;;;;20.13;11.45;;;;;;;12.61;75.72;100768.22;4874817;28;101187;-86
2021/09/23 01:20:35;;;;;;;19.33;11.85;;;;;;;12.65;75.61;100766.31;4882671;28;96697;-82
2021/09/23 01:23:00;;;;;;;18.83;12.05;;;;;;;12.63;75.00;100755.00;4871351;28;97166;-85
2021/09/23 01:25:36;;;;;;;15.20;10.57;;;;;;;12.60;75.20;100758.59;4859512;28;100451;-84
2021/09/23 01:28:02;;;;;;;17.90;11.38;;;;;;;12.67;75.65;100751.31;4880385;28;99872;-84
2021/09/23 01:30:44;;;;;;;17.10;11.63;;;;;;;12.72;75.05;100759.06;4884196;28;97961;-85
2021/09/23 01:33:10;;;;;;;19.27;11.38;;;;;;;12.80;74.79;100757.88;4868875;28;97228;-84
2021/09/23 01:35:36;;;;;;;19.25;10.32;;;;;;;12.82;74.69;100755.19;4882812;28;101654;-84
2021/09/23 01:38:04;;;;;;;21.85;11.23;;;;;;;12.74;74.83;100763.38;4867866;28;101161;-84
2021/09/23 01:40:29;;;;;;;16.30;10.65;;;;;;;12.65;75.17;100767.19;4879050;28;97831;-85
2021/09/23 01:42:55;;;;;;;20.30;12.65;;;;;;;12.61;75.21;100760.31;4875979;28;98156;-85
2021/09/23 01:45:21;;;;;;;19.20;11.48;;;;;;;12.74;74.85;100752.84;4867980;28;101655;-83
2021/09/23 01:47:49;;;;;;;21.58;11.90;;;;;;;12.69;75.01;100755.63;4880656;28;101509;-84
2021/09/23 01:50:19;;;;;;;19.75;11.30;;;;;;;12.60;75.79;100755.97;4882155;28;96788;-85
2021/09/23 01:52:48;;;;;;;16.83;10.50;;;;;;;12.59;75.90;100746.31;4882846;28;96913;-84
2021/09/23 01:55:14;;;;;;;14.82;10.30;;;;;;;12.70;75.53;100751.22;4881426;28;100708;-85
2021/09/23 01:57:42;;;;;;;16.85;11.05;;;;;;;12.65;75.29;100742.59;4878628;28;99414;-84
2021/09/23 02:00:08;;;;;;;21.70;10.52;;;;;;;12.66;75.40;100741.72;4878979;28;96691;-84
2021/09/23 02:02:42;;;;;;;16.58;10.48;;;;;;;12.64;76.02;100743.53;4861643;28;96922;-84
2021/09/23 02:05:31;;;;;;;22.33;11.30;;;;;;;12.65;75.32;100738.22;4869334;28;99245;-85
2021/09/23 02:07:58;;;;;;;14.55;10.50;;;;;;;12.80;74.86;100735.94;4874458;28;101687;-85
2021/09/23 02:10:24;;;;;;;19.58;10.75;;;;;;;12.92;73.95;100727.59;4898958;28;96915;-84
2021/09/23 02:12:52;;;;;;;17.77;10.35;;;;;;;12.87;73.79;100716.34;4890162;28;96680;-83
2021/09/23 02:15:19;;;;;;;16.10;8.95;;;;;;;12.78;74.17;100701.75;4887846;28;98452;-85
2021/09/23 02:17:44;;;;;;;17.23;9.70;;;;;;;12.77;74.20;100704.44;4870861;28;99422;-85
2021/09/23 02:20:12;;;;;;;14.43;9.85;;;;;;;12.75;74.39;100701.88;4866267;28;96876;-85
2021/09/23 02:22:46;;;;;;;17.58;9.63;;;;;;;12.82;73.95;100705.97;4882341;28;97060;-85
2021/09/23 02:25:12;;;;;;;14.90;9.98;;;;;;;12.80;74.18;100709.56;4864411;28;101191;-85
2021/09/23 02:27:38;;;;;;;16.42;9.82;;;;;;;12.71;74.26;100700.25;4864782;28;100351;-85
2021/09/23 02:30:05;;;;;;;14.15;9.70;;;;;;;12.88;73.56;100704.88;4896373;28;96840;-85
2021/09/23 02:32:31;;;;;;;23.92;10.43;;;;;;;12.87;73.76;100697.91;4881562;28;97728;-85
2021/09/23 02:34:57;;;;;;;16.48;10.23;;;;;;;12.75;73.48;100703.66;4879283;28;101688;-85
2021/09/23 02:37:24;;;;;;;19.35;10.07;;;;;;;12.69;74.30;100692.41;4863623;28;100093;-85
2021/09/23 02:39:50;;;;;;;11.27;8.85;;;;;;;12.68;73.83;100688.06;4863011;28;96777;-86
2021/09/23 02:42:15;;;;;;;18.70;9.13;;;;;;;12.71;74.31;100697.59;4865490;28;97136;-85
2021/09/23 02:44:41;;;;;;;18.30;10.55;;;;;;;12.74;73.92;100691.38;4864467;28;100676;-85
2021/09/23 02:47:06;;;;;;;12.65;9.40;;;;;;;12.67;74.02;100686.34;4861124;28;101226;-86
2021/09/23 02:49:32;;;;;;;13.93;9.00;;;;;;;12.70;74.48;100677.47;4864274;28;96885;-85
2021/09/23 02:51:58;;;;;;;20.75;9.50;;;;;;;12.72;74.50;100690.59;4861665;28;96895;-85
2021/09/23 02:54:24;;;;;;;16.75;9.98;;;;;;;12.72;74.58;100682.69;4878991;28;101832;-85
2021/09/23 02:56:50;;;;;;;17.35;9.25;;;;;;;12.68;74.90;100668.75;4880299;28;101251;-85
2021/09/23 02:59:16;;;;;;;14.10;9.00;;;;;;;12.68;74.28;100667.00;4878300;28;96720;-85
2021/09/23 03:01:41;;;;;;;16.60;8.90;;;;;;;12.67;74.15;100678.44;4861124;28;96913;-85
2021/09/23 03:04:07;;;;;;;15.65;9.05;;;;;;;12.68;74.07;100674.00;4863610;28;100498;-85
2021/09/23 03:06:32;;;;;;;16.98;8.85;;;;;;;12.70;74.50;100680.09;4880099;28;100107;-86
2021/09/23 03:08:59;;;;;;;17.30;9.52;;;;;;;12.70;74.41;100669.56;4879553;28;96760;-85
2021/09/23 03:11:26;;;;;;;24.92;10.02;;;;;;;12.81;73.90;100675.28;4865332;28;97024;-85
2021/09/23 03:13:52;;;;;;;19.05;9.93;;;;;;;12.75;74.15;100670.25;4876883;28;100285;-85
2021/09/23 03:16:17;;;;;;;18.10;9.25;;;;;;;12.75;74.42;100667.63;4864441;28;100632;-86
2021/09/23 03:18:45;;;;;;;18.55;9.73;;;;;;;12.76;74.55;100661.44;4861214;28;96811;-85
2021/09/23 03:21:11;;;;;;;15.77;9.50;;;;;;;12.73;74.65;100664.19;4880343;28;96898;-85
2021/09/23 03:23:37;;;;;;;18.08;10.43;;;;;;;12.74;74.82;100667.66;4871926;28;100714;-85
2021/09/23 03:26:04;;;;;;;18.48;11.07;;;;;;;12.86;74.22;100661.97;4879868;28;99800;-85
2021/09/23 03:28:30;;;;;;;20.13;10.00;;;;;;;12.84;74.15;100654.09;4894126;28;96728;-86
2021/09/23 03:30:57;;;;;;;16.77;9.52;;;;;;;12.87;74.05;100642.59;4878652;28;96830;-85
2021/09/23 03:33:22;;;;;;;26.27;9.68;;;;;;;12.78;74.44;100638.53;4879766;28;98529;-85
2021/09/23 03:35:48;;;;;;;14.48;8.90;;;;;;;12.77;74.29;100633.31;4879388;28;101211;-86
2021/09/23 03:38:14;;;;;;;15.90;8.75;;;;;;;12.86;74.11;100632.97;4878050;28;96740;-85
2021/09/23 03:40:44;;;;;;;16.27;9.13;;;;;;;12.78;74.26;100630.63;4886637;28;97258;-85
2021/09/23 03:43:10;;;;;;;14.40;9.18;;;;;;;12.79;74.33;100619.16;4878085;28;97318;-86
2021/09/23 03:45:35;;;;;;;19.23;10.07;;;;;;;12.80;73.87;100615.63;4890626;28;98127;-85
2021/09/23 03:48:01;;;;;;;17.27;9.55;;;;;;;12.75;73.91;100620.22;4861899;28;96753;-85
2021/09/23 03:50:27;;;;;;;19.23;9.35;;;;;;;12.72;74.52;100614.22;4872492;28;96859;-85
2021/09/23 03:52:53;;;;;;;20.65;10.02;;;;;;;12.74;74.10;100605.34;4878157;28;101480;-85
2021/09/23 03:55:19;;;;;;;18.92;9.18;;;;;;;12.76;74.87;100600.84;4863731;28;101772;-85
2021/09/23 03:57:45;;;;;;;17.92;9.02;;;;;;;12.74;74.19;100593.91;4879646;28;96725;-85
2021/09/23 04:00:12;;;;;;;23.33;10.20;;;;;;;12.72;74.82;100590.50;4879645;28;97018;-85
2021/09/23 04:02:41;;;;;;;20.88;10.18;;;;;;;12.69;74.54;100594.09;4874245;28;97001;-85
2021/09/23 04:05:07;;;;;;;17.35;9.93;;;;;;;12.62;74.71;100588.22;4859285;28;100878;-85
2021/09/23 04:07:33;;;;;;;16.75;10.15;;;;;;;12.77;73.94;100593.78;4879545;28;96878;-85
2021/09/23 04:09:59;;;;;;;18.38;10.35;;;;;;;12.76;74.42;100602.63;4879286;28;97220;-85
2021/09/23 04:12:25;;;;;;;21.38;10.18;;;;;;;12.77;74.35;100596.44;4877971;28;101412;-86
2021/09/23 04:14:51;;;;;;;20.15;10.32;;;;;;;12.73;74.48;100594.84;4862639;28;99497;-84
2021/09/23 04:17:19;;;;;;;20.35;10.30;;;;;;;12.77;74.33;100594.69;4863350;28;96864;-86
2021/09/23 04:19:45;;;;;;;18.77;10.35;;;;;;;12.73;74.28;100598.31;4872806;28;96840;-85
2021/09/23 04:22:11;;;;;;;14.38;9.82;;;;;;;12.78;74.28;100592.91;4878353;28;102030;-85
2021/09/23 04:24:37;;;;;;;19.77;10.45;;;;;;;12.73;74.67;100594.84;4881972;28;100864;-85
2021/09/23 04:27:04;;;;;;;18.38;9.68;;;;;;;12.67;74.76;100596.78;4877877;28;97083;-85
2021/09/23 04:29:29;;;;;;;19.63;9.55;;;;;;;12.67;74.79;100595.94;4872647;28;96998;-85
2021/09/23 04:31:55;;;;;;;19.45;10.05;;;;;;;12.65;74.42;100588.09;4868117;28;101375;-85
2021/09/23 04:34:21;;;;;;;17.80;9.85;;;;;;;12.70;74.56;100601.09;4879907;28;97970;-84
2021/09/23 04:36:47;;;;;;;20.30;9.80;;;;;;;12.68;74.83;100593.25;4870777;28;96955;-85
2021/09/23 04:39:13;;;;;;;18.75;9.30;;;;;;;12.68;74.78;100593.25;4879736;28;97116;-86
2021/09/23 04:41:39;;;;;;;19.52;9.13;;;;;;;12.66;75.08;100597.72;4874479;28;100106;-85
2021/09/23 04:44:07;;;;;;;19.20;9.88;;;;;;;12.67;74.50;100580.13;4890796;28;100519;-85
2021/09/23 04:46:33;;;;;;;24.50;10.27;;;;;;;12.69;75.02;100594.97;4874490;28;96847;-85
2021/09/23 04:49:00;;;;;;;18.73;9.23;;;;;;;12.69;74.73;100591.47;4865812;28;97030;-86
2021/09/23 04:51:27;;;;;;;19.65;9.90;;;;;;;12.69;74.76;100580.94;4891904;28;97542;-85
2021/09/23 04:53:55;;;;;;;15.75;9.35;;;;;;;12.66;75.27;100579.28;4863288;28;101402;-85
2021/09/23 04:56:21;;;;;;;14.32;8.48;;;;;;;12.67;75.16;100572.22;4859732;28;96726;-87
2021/09/23 04:58:47;;;;;;;24.67;8.75;;;;;;;12.74;74.51;100571.09;4856203;28;96848;-80
2021/09/23 05:01:13;;;;;;;22.38;10.07;;;;;;;12.83;74.21;100568.09;4860740;28;101348;-80
2021/09/23 05:03:38;;;;;;;17.92;9.15;;;;;;;12.75;74.77;100559.63;4868365;28;101556;-80
2021/09/23 05:06:06;;;;;;;24.67;10.02;;;;;;;12.73;74.58;100552.69;4870671;28;96874;-82
2021/09/23 05:08:31;;;;;;;18.50;8.40;;;;;;;12.73;74.62;100555.34;4875115;28;97117;-81
2021/09/23 05:10:57;;;;;;;18.88;9.27;;;;;;;12.73;74.48;100560.59;4877155;28;101272;-81
2021/09/23 05:13:22;;;;;;;17.67;8.38;;;;;;;12.68;74.72;100560.75;4887288;28;98357;-81
2021/09/23 05:15:48;;;;;;;13.85;8.02;;;;;;;12.73;74.39;100560.59;4875387;28;96918;-81
2021/09/23 05:18:13;;;;;;;15.63;8.40;;;;;;;12.67;74.33;100553.78;4855666;28;96916;-81
2021/09/23 05:20:39;;;;;;;21.75;8.70;;;;;;;12.72;74.48;100564.16;4860285;28;101731;-82
2021/09/23 05:23:05;;;;;;;19.50;8.98;;;;;;;12.68;74.58;100561.66;4854360;28;102289;-80
2021/09/23 05:25:31;;;;;;;22.45;9.50;;;;;;;12.70;74.56;100561.56;4893297;28;96702;-80
2021/09/23 05:27:57;;;;;;;16.92;9.82;;;;;;;12.69;74.55;100560.72;4895402;28;96913;-79
2021/09/23 05:30:25;;;;;;;24.20;10.30;;;;;;;12.67;75.02;100556.44;4884653;28;98072;-78
2021/09/23 05:32:53;;;;;;;18.63;10.20;;;;;;;12.69;74.34;100565.13;4895963;28;97389;-80
2021/09/23 05:35:19;;;;;;;25.55;11.20;;;;;;;12.80;74.08;100557.69;4896899;28;96735;-81
2021/09/23 05:37:45;;;;;;;22.60;11.75;;;;;;;12.88;74.02;100560.84;4894991;28;97348;-81
2021/09/23 05:40:12;;;;;;;23.85;11.20;;;;;;;13.00;73.71;100561.28;4879748;28;101547;-81
2021/09/23 05:42:38;;;;;;;23.35;11.05;;;;;;;13.07;73.30;100560.13;4896907;28;98301;-81
2021/09/23 05:45:08;;;;;;;22.23;10.40;;;;;;;13.13;73.80;100555.44;4878853;28;96759;-80
2021/09/23 05:47:34;;;;;;;22.00;10.90;;;;;;;13.25;73.26;100555.88;4853156;28;97119;-80
2021/09/23 05:50:00;;;;;;;22.15;10.18;;;;;;;13.41;72.70;100559.63;4875289;28;98163;-80
2021/09/23 05:52:26;;;;;;;23.55;10.93;;;;;;;13.46;72.38;100562.91;4862172;28;101675;-80
2021/09/23 05:54:51;;;;;;;18.23;9.02;;;;;;;13.58;72.04;100558.88;4890199;28;97063;-81
2021/09/23 05:57:24;;;;;;;21.40;10.48;;;;;;;13.68;71.64;100556.72;4873060;28;98502;-83
2021/09/23 05:59:52;;;;;;;14.30;9.60;;;;;;;13.81;71.60;100552.63;4878018;28;97098;-82
2021/09/23 06:02:19;;;;;;;23.52;10.27;;;;;;;14.02;70.79;100545.53;4861643;28;98332;-82
2021/09/23 06:04:44;;;;;;;19.95;10.00;;;;;;;14.21;70.25;100542.94;4873336;28;96841;-81
2021/09/23 06:07:10;;;;;;;19.15;9.77;;;;;;;14.39;70.07;100542.09;4874407;28;97693;-81
2021/09/23 06:09:36;;;;;;;21.35;10.18;;;;;;;14.46;69.60;100548.81;4877377;28;102339;-83
2021/09/23 06:12:01;;;;;;;18.58;9.00;;;;;;;14.59;69.29;100550.91;4894449;28;98142;-82
2021/09/23 06:14:28;;;;;;;17.95;9.90;;;;;;;14.90;68.11;100543.22;4866172;28;96874;-82
2021/09/23 06:16:54;;;;;;;16.65;10.13;;;;;;;15.15;67.68;100552.59;4872169;28;96919;-82
2021/09/23 06:19:20;;;;;;;13.43;9.60;;;;;;;15.13;67.45;100549.19;4892676;28;97874;-79
2021/09/23 06:21:46;;;;;;;17.02;9.18;;;;;;;15.09;67.28;100548.47;4869909;28;97717;-80
2021/09/23 06:24:11;;;;;;;18.08;10.07;;;;;;;15.39;66.87;100547.91;4876987;28;97257;-80
2021/09/23 06:26:37;;;;;;;23.58;10.70;;;;;;;16.04;65.12;100545.44;4874932;28;97019;-82
2021/09/23 06:29:02;;;;;;;17.90;9.63;;;;;;;16.51;63.74;100537.56;4874732;28;98482;-80
2021/09/23 06:31:28;;;;;;;19.42;9.35;;;;;;;16.94;63.29;100540.50;4891535;28;97487;-80
2021/09/23 06:33:54;;;;;;;12.82;8.98;;;;;;;17.33;61.82;100541.75;4852991;28;97616;-82
2021/09/23 06:36:19;;;;;;;14.88;9.45;;;;;;;17.78;60.70;100528.56;4871625;28;97500;-82
2021/09/23 06:38:47;;;;;;;20.83;10.15;;;;;;;18.26;59.29;100521.13;4872083;28;101629;-80
2021/09/23 06:41:13;;;;;;;16.73;10.30;;;;;;;18.80;58.28;100515.94;4872243;28;97939;-80
2021/09/23 06:43:40;;;;;;;19.52;9.43;;;;;;;19.29;56.16;100518.03;4890716;28;96863;-82
2021/09/23 06:46:06;;;;;;;17.40;10.50;;;;;;;19.94;55.29;100511.81;4879073;28;97293;-82
2021/09/23 06:48:31;;;;;;;19.30;9.13;;;;;;;20.79;52.92;100507.47;4874196;28;102224;-77
2021/09/23 06:50:57;;;;;;;18.25;10.32;;;;;;;21.32;50.52;100503.56;4890856;28;98024;-77
2021/09/23 06:53:22;;;;;;;14.65;9.15;;;;;;;21.98;50.01;100498.50;4885814;28;97031;-79
2021/09/23 06:55:48;;;;;;;11.65;9.85;;;;;;;22.89;47.48;100492.03;4872993;28;97555;-76
2021/09/23 06:58:14;;;;;;;13.80;9.27;;;;;;;23.80;45.63;100496.00;4888829;28;98111;-79
2021/09/23 07:00:58;;;;;;;14.00;9.57;;;;;;;23.74;45.01;100492.03;4887565;28;97218;-79
2021/09/23 07:03:49;;;;;;;16.17;10.00;;;;;;;22.04;48.51;100498.00;4867335;28;97006;-78
2021/09/23 07:06:33;;;;;;;13.68;8.70;;;;;;;20.81;51.08;100507.38;4872335;28;98572;-82
2021/09/23 07:08:59;;;;;;;11.30;8.55;;;;;;;21.08;50.38;100507.13;4870973;28;101620;-80
2021/09/23 07:11:26;;;;;;;10.18;8.13;;;;;;;20.80;50.43;100495.84;4873566;28;102354;-79
2021/09/23 07:13:52;;;;;;;13.27;9.13;;;;;;;20.32;51.99;100484.25;4868740;28;97360;-79
2021/09/23 07:16:19;;;;;;;12.70;9.18;;;;;;;20.38;52.07;100501.63;4882106;28;97082;-80
2021/09/23 07:18:45;;;;;;;14.35;7.93;;;;;;;21.81;48.68;100484.63;4867468;28;101862;-79
2021/09/23 07:21:11;;;;;;;12.80;8.30;;;;;;;22.06;48.14;100480.88;4865880;28;100934;-79
2021/09/23 07:23:36;;;;;;;9.52;8.45;;;;;;;23.27;46.04;100476.34;4858716;28;98336;-80
2021/09/23 07:26:02;;;;;;;11.45;8.20;;;;;;;23.43;45.58;100475.03;4864104;28;97043;-80
2021/09/23 07:28:28;;;;;;;11.27;8.05;;;;;;;23.16;46.28;100472.88;4873440;28;101827;-80
2021/09/23 07:30:54;;;;;;;11.63;7.90;;;;;;;22.19;48.20;100490.63;4856310;28;100857;-80
2021/09/23 07:33:20;;;;;;;19.20;8.27;;;;;;;21.84;48.68;100475.53;4859174;28;97313;-80
2021/09/23 07:35:45;;;;;;;13.02;9.02;;;;;;;21.03;50.86;100493.25;4890372;28;97153;-80
2021/09/23 07:38:12;;;;;;;13.77;9.30;;;;;;;20.55;52.10;100488.78;4874471;28;101794;-79
2021/09/23 07:40:38;;;;;;;13.60;9.30;;;;;;;20.32;52.63;100492.25;4874429;28;98223;-80
2021/09/23 07:43:04;;;;;;;11.75;9.43;;;;;;;20.37;52.04;100490.09;4878066;28;96729;-79
2021/09/23 07:45:29;;;;;;;16.00;9.82;;;;;;;20.08;52.67;100481.53;4860632;28;97489;-80
2021/09/23 07:47:56;;;;;;;13.10;9.48;;;;;;;19.73;54.08;100484.88;4866625;28;101114;-81
2021/09/23 07:50:22;;;;;;;11.57;9.90;;;;;;;20.66;52.29;100477.34;4872586;28;101269;-81
2021/09/23 07:52:48;;;;;;;14.02;10.30;;;;;;;22.79;48.02;100473.22;4868979;28;98439;-81
2021/09/23 07:55:13;;;;;;;18.35;10.88;;;;;;;24.30;44.44;100475.44;4880875;28;96864;-81
2021/09/23 07:57:39;;;;;;;13.15;9.48;;;;;;;25.80;41.12;100460.72;4888271;28;98047;-81
2021/09/23 08:00:06;;;;;;;11.55;9.80;;;;;;;27.22;38.98;100456.63;4853259;28;100070;-82
2021/09/23 08:02:43;;;;;;;11.07;9.63;;;;;;;26.55;40.42;100456.16;4865994;28;99104;-81
2021/09/23 08:05:12;;;;;;;13.20;9.40;;;;;;;25.52;41.03;100444.56;4890219;28;97163;-81
2021/09/23 08:07:39;;;;;;;14.93;9.43;;;;;;;24.71;43.16;100462.84;4857112;28;101880;-80
2021/09/23 08:10:05;;;;;;;13.23;10.02;;;;;;;23.79;44.73;100465.66;4872439;28;98027;-81
2021/09/23 08:12:32;;;;;;;11.10;9.93;;;;;;;24.25;43.96;100458.06;4871477;28;96868;-81
2021/09/23 08:14:57;;;;;;;12.35;10.00;;;;;;;25.45;41.79;100456.03;4872344;28;97177;-81
2021/09/23 08:17:33;;;;;;;12.70;10.52;;;;;;;26.62;40.07;100438.41;4876745;28;101035;-80
2021/09/23 08:20:08;;;;;;;11.77;8.98;;;;;;;27.62;38.80;100440.91;4874911;28;102490;-82
2021/09/23 08:22:37;;;;;;;11.30;10.20;;;;;;;27.19;39.22;100434.53;4873378;28;96994;-81
2021/09/23 08:25:04;;;;;;;11.05;9.85;;;;;;;26.98;38.96;100430.31;4858628;28;97050;-80
2021/09/23 08:27:30;;;;;;;11.68;9.95;;;;;;;24.85;43.13;100429.38;4872071;28;98036;-79
2021/09/23 08:29:56;;;;;;;11.40;10.18;;;;;;;23.40;45.90;100422.56;4874499;28;101642;-80
2021/09/23 08:32:22;;;;;;;13.32;10.40;;;;;;;22.69;47.34;100430.34;4891214;28;97239;-79
2021/09/23 08:34:49;;;;;;;12.02;9.95;;;;;;;24.53;44.06;100422.44;4857125;28;97169;-79
2021/09/23 08:37:15;;;;;;;14.20;10.30;;;;;;;24.79;43.98;100416.53;4873379;28;101452;-81
2021/09/23 08:39:41;;;;;;;10.70;9.65;;;;;;;24.40;44.45;100419.13;4873077;28;98127;-81
2021/09/23 08:42:07;;;;;;;13.68;10.57;;;;;;;24.20;44.57;100415.56;4859110;28;96831;-80
2021/09/23 08:44:35;;;;;;;13.95;11.40;;;;;;;23.88;45.00;100410.38;4872408;28;97075;-80
2021/09/23 08:47:01;;;;;;;10.52;9.38;;;;;;;23.50;45.79;100403.84;4857101;28;101291;-81
2021/09/23 08:49:27;;;;;;;11.52;9.63;;;;;;;22.95;47.17;100404.09;4887197;28;101721;-80
2021/09/23 08:51:53;;;;;;;14.13;10.10;;;;;;;23.65;45.67;100397.19;4872813;28;97819;-80
2021/09/23 08:54:18;;;;;;;13.88;10.60;;;;;;;25.38;42.76;100393.97;4886012;28;97390;-80
2021/09/23 08:56:46;;;;;;;13.50;10.88;;;;;;;26.67;40.85;100386.78;4861844;28;101531;-80
2021/09/23 08:59:12;;;;;;;10.10;9.07;;;;;;;26.75;40.71;100391.41;4878194;28;99035;-80
2021/09/23 09:01:50;;;;;;;14.48;9.10;;;;;;;24.49;43.94;100396.03;4875633;28;97273;-81
2021/09/23 09:04:37;;;;;;;11.00;10.00;;;;;;;23.95;44.70;100390.97;4860390;28;97370;-81
2021/09/23 09:07:29;;;;;;;13.73;10.60;;;;;;;23.49;45.62;100392.28;4887672;28;97629;-81
2021/09/23 09:10:13;;;;;;;12.80;10.18;;;;;;;23.07;46.92;100378.13;4885370;28;97202;-81
2021/09/23 09:12:45;;;;;;;13.82;10.23;;;;;;;22.23;48.50;100380.66;4865440;28;100727;-80
2021/09/23 09:15:11;;;;;;;12.90;10.10;;;;;;;21.53;50.01;100375.59;4820960;29;97541;-81
2021/09/23 09:17:37;;;;;;;12.73;10.23;;;;;;;21.05;51.09;100379.25;4839271;29;101392;-80
2021/09/23 09:20:08;;;;;;;12.38;10.73;;;;;;;20.85;51.43;100378.09;4833773;28;100609;-80
2021/09/23 09:22:36;;;;;;;12.10;9.25;;;;;;;23.47;47.53;100367.50;4846767;28;98276;-84
2021/09/23 09:25:10;;;;;;;10.38;9.23;;;;;;;23.90;46.04;100369.06;4841968;29;97072;-80
2021/09/23 09:27:48;;;;;;;13.70;10.13;;;;;;;23.39;46.66;100350.41;4853101;29;101317;-80
2021/09/23 09:30:19;;;;;;;14.27;10.95;;;;;;;23.63;46.56;100350.91;4838257;29;100004;-80
2021/09/23 09:32:49;;;;;;;12.43;10.55;;;;;;;25.47;43.02;100360.84;4850374;29;98087;-80
2021/09/23 09:35:19;;;;;;;11.30;10.38;;;;;;;26.42;41.68;100353.41;4855021;29;97305;-81
2021/09/23 09:37:48;;;;;;;11.57;9.77;;;;;;;26.85;39.87;100354.47;4867548;28;100201;-83
2021/09/23 09:40:17;;;;;;;12.52;11.23;;;;;;;27.35;40.92;100356.53;4866638;28;98540;-83
2021/09/23 09:42:44;;;;;;;12.30;11.02;;;;;;;28.01;38.99;100340.63;4854265;29;97379;-84
2021/09/23 09:45:16;;;;;;;14.70;12.13;;;;;;;28.08;39.02;100339.81;4839368;29;97375;-83
2021/09/23 09:47:42;;;;;;;12.65;11.35;;;;;;;28.85;37.02;100344.94;4824722;29;101591;-81
2021/09/23 09:50:11;;;;;;;14.80;11.55;;;;;;;28.82;36.52;100343.41;4822388;29;100886;-88
2021/09/23 09:52:38;;;;;;;13.07;11.77;;;;;;;28.84;36.60;100333.31;4823272;29;98089;-88
2021/09/23 09:55:09;;;;;;;13.05;11.60;;;;;;;28.57;37.06;100329.09;4834539;29;98321;-88
2021/09/23 09:57:46;;;;;;;13.13;12.05;;;;;;;28.57;37.02;100312.06;4837075;29;100844;-89
2021/09/23 10:00:13;;;;;;;13.27;11.95;;;;;;;28.88;36.71;100312.19;4824467;29;100671;-88
2021/09/23 10:02:43;;;;;;;13.18;11.55;;;;;;;28.79;36.43;100297.84;4863648;28;98106;-87
2021/09/23 10:05:14;;;;;;;13.45;11.32;;;;;;;28.75;36.62;100301.09;4835985;29;97120;-87
2021/09/23 10:07:44;;;;;;;12.70;11.55;;;;;;;28.54;37.00;100288.94;4838193;29;99837;-87
2021/09/23 10:10:11;;;;;;;15.93;13.35;;;;;;;27.98;37.40;100277.06;4855316;29;101827;-87
2021/09/23 10:12:41;;;;;;;12.63;11.50;;;;;;;27.04;39.30;100265.38;4831064;28;97129;-86
2021/09/23 10:15:08;;;;;;;14.27;12.32;;;;;;;26.33;40.12;100260.16;4875563;28;97485;-83
2021/09/23 10:17:34;;;;;;;13.73;12.38;;;;;;;25.88;40.97;100248.47;4877372;28;101350;-81
2021/09/23 10:20:03;;;;;;;14.65;13.35;;;;;;;25.85;40.31;100250.63;4878916;28;101247;-84
2021/09/23 10:22:29;;;;;;;16.42;14.80;;;;;;;25.61;40.84;100240.44;4885895;28;97439;-85
2021/09/23 10:24:56;;;;;;;14.55;13.05;;;;;;;25.11;41.82;100246.19;4875823;28;97820;-86
2021/09/23 10:30:08;;;;;;;20.00;13.57;;;;;;;24.75;43.66;100220.00;4872577;28;101885;-81
2021/09/23 10:32:35;;;;;;;15.18;12.65;;;;;;;24.79;44.28;100221.44;4876120;28;96823;-83
2021/09/23 10:35:01;;;;;;;12.32;11.23;;;;;;;24.74;44.31;100212.13;4875332;28;97238;-80
2021/09/23 10:37:27;;;;;;;13.32;11.52;;;;;;;24.58;43.65;100205.53;4875584;28;101482;-87
2021/09/23 10:39:55;;;;;;;13.15;12.05;;;;;;;24.38;43.63;100207.38;4875301;28;100586;-82
2021/09/23 10:42:21;;;;;;;12.77;11.60;;;;;;;24.18;43.83;100209.22;4860027;28;97946;-84
2021/09/23 10:44:48;;;;;;;13.25;11.40;;;;;;;23.67;44.48;100202.28;4876784;28;98313;-85
2021/09/23 10:47:23;;;;;;;14.15;12.75;;;;;;;23.73;43.81;100193.69;4873112;28;101456;-88
2021/09/23 10:49:49;;;;;;;12.90;11.80;;;;;;;23.35;44.81;100198.97;4896307;28;101778;-82
2021/09/23 10:52:15;;;;;;;22.67;13.52;;;;;;;23.33;44.78;100193.78;4911756;28;96716;-87
2021/09/23 10:54:41;;;;;;;15.10;12.40;;;;;;;23.20;45.63;100177.94;4874865;28;96853;-87
2021/09/23 10:57:07;;;;;;;12.98;11.73;;;;;;;22.91;46.27;100177.81;4875629;28;101578;-87
2021/09/23 10:59:33;;;;;;;13.05;11.93;;;;;;;22.87;47.04;100178.25;4862161;28;100458;-85
2021/09/23 11:02:28;;;;;;;15.95;11.95;;;;;;;22.60;46.21;100167.13;4859598;28;96893;-87
2021/09/23 11:04:59;;;;;;;12.88;10.40;;;;;;;22.52;47.11;100161.59;4876296;28;96974;-85
2021/09/23 11:07:26;;;;;;;11.88;10.77;;;;;;;22.48;47.54;100164.66;4903841;28;100406;-86
2021/09/23 11:10:08;;;;;;;14.10;11.88;;;;;;;22.29;47.46;100163.56;4894607;28;96873;-84
2021/09/23 11:12:35;;;;;;;13.20;11.88;;;;;;;22.30;47.45;100159.06;4862925;28;97205;-90
2021/09/23 11:15:02;;;;;;;15.18;11.10;;;;;;;22.35;48.43;100152.34;4862988;28;96880;-87